sensor_id;sensor_type;location;lat;lon;timestamp;temperature;humidity
10492;DHT22;5293;51.464;-2.566;2024-02-15T00:00:28;13.30;99.90
10492;DHT22;5293;51.464;-2.566;2024-02-15T00:02:53;13.30;99.90
10492;DHT22;5293;51.464;-2.566;2024-02-15T00:05:19;13.40;99.90
10492;DHT22;5293;51.464;-2.566;2024-02-15T00:07:45;13.40;99.90
10492;DHT22;5293;51.464;-2.566;2024-02-15T00:10:13;13.40;99.90
10492;DHT22;5293;51.464;-2.566;2024-02-15T00:12:39;13.40;99.90
10492;DHT22;5293;51.464;-2.566;2024-02-15T00:15:05;13.40;99.90
10492;DHT22;5293;51.464;-2.566;2024-02-15T00:17:31;13.40;99.90
10492;DHT22;5293;51.464;-2.566;2024-02-15T00:19:58;13.50;99.90
10492;DHT22;5293;51.464;-2.566;2024-02-15T00:22:25;13.40;99.90
10492;DHT22;5293;51.464;-2.566;2024-02-15T00:24:51;13.40;99.90
10492;DHT22;5293;51.464;-2.566;2024-02-15T00:27:16;13.40;99.90
10492;DHT22;5293;51.464;-2.566;2024-02-15T00:29:42;13.40;99.90
10492;DHT22;5293;51.464;-2.566;2024-02-15T00:32:11;13.40;99.90
10492;DHT22;5293;51.464;-2.566;2024-02-15T00:34:37;13.30;99.90
10492;DHT22;5293;51.464;-2.566;2024-02-15T00:37:05;13.40;99.90
10492;DHT22;5293;51.464;-2.566;2024-02-15T00:39:31;13.40;99.90
10492;DHT22;5293;51.464;-2.566;2024-02-15T00:41:57;13.40;99.90
10492;DHT22;5293;51.464;-2.566;2024-02-15T00:44:28;13.40;99.90
10492;DHT22;5293;51.464;-2.566;2024-02-15T00:46:54;13.40;99.90
10492;DHT22;5293;51.464;-2.566;2024-02-15T00:49:19;13.40;99.90
10492;DHT22;5293;51.464;-2.566;2024-02-15T00:51:46;13.40;99.90
10492;DHT22;5293;51.464;-2.566;2024-02-15T00:54:12;13.40;99.90
10492;DHT22;5293;51.464;-2.566;2024-02-15T00:56:38;13.40;99.90
10492;DHT22;5293;51.464;-2.566;2024-02-15T00:59:03;13.40;99.90
10492;DHT22;5293;51.464;-2.566;2024-02-15T01:01:30;13.40;99.90
10492;DHT22;5293;51.464;-2.566;2024-02-15T01:03:56;13.40;99.90
10492;DHT22;5293;51.464;-2.566;2024-02-15T01:06:22;13.40;99.90
10492;DHT22;5293;51.464;-2.566;2024-02-15T01:08:47;13.40;99.90
10492;DHT22;5293;51.464;-2.566;2024-02-15T01:11:13;13.40;99.90
10492;DHT22;5293;51.464;-2.566;2024-02-15T01:13:39;13.40;99.90
10492;DHT22;5293;51.464;-2.566;2024-02-15T01:16:05;13.40;99.90
10492;DHT22;5293;51.464;-2.566;2024-02-15T01:18:30;13.30;99.90
10492;DHT22;5293;51.464;-2.566;2024-02-15T01:20:57;13.30;99.90
10492;DHT22;5293;51.464;-2.566;2024-02-15T01:23:23;13.30;99.90
10492;DHT22;5293;51.464;-2.566;2024-02-15T01:25:49;13.40;99.90
10492;DHT22;5293;51.464;-2.566;2024-02-15T01:28:15;13.40;99.90
10492;DHT22;5293;51.464;-2.566;2024-02-15T01:30:40;13.40;99.90
10492;DHT22;5293;51.464;-2.566;2024-02-15T01:33:09;13.30;99.90
10492;DHT22;5293;51.464;-2.566;2024-02-15T01:35:36;13.40;99.90
10492;DHT22;5293;51.464;-2.566;2024-02-15T01:38:02;13.40;99.90
10492;DHT22;5293;51.464;-2.566;2024-02-15T01:40:28;13.40;99.90
10492;DHT22;5293;51.464;-2.566;2024-02-15T01:42:54;13.40;99.90
10492;DHT22;5293;51.464;-2.566;2024-02-15T01:45:20;13.30;99.90
10492;DHT22;5293;51.464;-2.566;2024-02-15T01:47:48;13.30;99.90
10492;DHT22;5293;51.464;-2.566;2024-02-15T01:50:14;13.40;99.90
10492;DHT22;5293;51.464;-2.566;2024-02-15T01:52:43;13.40;99.90
10492;DHT22;5293;51.464;-2.566;2024-02-15T01:55:13;13.30;99.90
10492;DHT22;5293;51.464;-2.566;2024-02-15T01:57:44;13.40;99.90
10492;DHT22;5293;51.464;-2.566;2024-02-15T02:00:13;13.40;99.90
10492;DHT22;5293;51.464;-2.566;2024-02-15T02:02:42;13.40;99.90
10492;DHT22;5293;51.464;-2.566;2024-02-15T02:05:08;13.40;99.90
10492;DHT22;5293;51.464;-2.566;2024-02-15T02:07:33;13.40;99.90
10492;DHT22;5293;51.464;-2.566;2024-02-15T02:09:59;13.40;99.90
10492;DHT22;5293;51.464;-2.566;2024-02-15T02:12:25;13.40;99.90
10492;DHT22;5293;51.464;-2.566;2024-02-15T02:14:56;13.40;99.90
10492;DHT22;5293;51.464;-2.566;2024-02-15T02:17:21;13.30;99.90
10492;DHT22;5293;51.464;-2.566;2024-02-15T02:19:47;13.30;99.90
10492;DHT22;5293;51.464;-2.566;2024-02-15T02:22:16;13.30;99.90
10492;DHT22;5293;51.464;-2.566;2024-02-15T02:25:06;13.40;99.90
10492;DHT22;5293;51.464;-2.566;2024-02-15T02:27:34;13.30;99.90
10492;DHT22;5293;51.464;-2.566;2024-02-15T02:30:00;13.30;99.90
10492;DHT22;5293;51.464;-2.566;2024-02-15T02:32:26;13.30;99.90
10492;DHT22;5293;51.464;-2.566;2024-02-15T02:34:52;13.40;99.90
10492;DHT22;5293;51.464;-2.566;2024-02-15T02:37:23;13.40;99.90
10492;DHT22;5293;51.464;-2.566;2024-02-15T02:39:50;13.40;99.90
10492;DHT22;5293;51.464;-2.566;2024-02-15T02:42:16;13.40;99.90
10492;DHT22;5293;51.464;-2.566;2024-02-15T02:44:42;13.40;99.90
10492;DHT22;5293;51.464;-2.566;2024-02-15T02:47:07;13.40;99.90
10492;DHT22;5293;51.464;-2.566;2024-02-15T02:49:35;13.50;99.90
10492;DHT22;5293;51.464;-2.566;2024-02-15T02:52:01;13.50;99.90
10492;DHT22;5293;51.464;-2.566;2024-02-15T02:54:26;13.50;99.90
10492;DHT22;5293;51.464;-2.566;2024-02-15T02:56:53;13.50;99.90
10492;DHT22;5293;51.464;-2.566;2024-02-15T02:59:19;13.50;99.90
10492;DHT22;5293;51.464;-2.566;2024-02-15T03:01:45;13.50;99.90
10492;DHT22;5293;51.464;-2.566;2024-02-15T03:04:10;13.60;99.90
10492;DHT22;5293;51.464;-2.566;2024-02-15T03:06:37;13.60;99.90
10492;DHT22;5293;51.464;-2.566;2024-02-15T03:09:03;13.50;99.90
10492;DHT22;5293;51.464;-2.566;2024-02-15T03:11:32;13.50;99.90
10492;DHT22;5293;51.464;-2.566;2024-02-15T03:14:01;13.60;99.90
10492;DHT22;5293;51.464;-2.566;2024-02-15T03:16:30;13.60;99.90
10492;DHT22;5293;51.464;-2.566;2024-02-15T03:18:56;13.60;99.90
10492;DHT22;5293;51.464;-2.566;2024-02-15T03:21:21;13.70;99.90
10492;DHT22;5293;51.464;-2.566;2024-02-15T03:23:47;13.70;99.90
10492;DHT22;5293;51.464;-2.566;2024-02-15T03:26:13;13.70;99.90
10492;DHT22;5293;51.464;-2.566;2024-02-15T03:28:39;13.70;99.90
10492;DHT22;5293;51.464;-2.566;2024-02-15T03:31:05;13.70;99.90
10492;DHT22;5293;51.464;-2.566;2024-02-15T03:33:30;13.60;99.90
10492;DHT22;5293;51.464;-2.566;2024-02-15T03:36:00;13.70;99.90
10492;DHT22;5293;51.464;-2.566;2024-02-15T03:38:29;13.70;99.90
10492;DHT22;5293;51.464;-2.566;2024-02-15T03:40:56;13.70;99.90
10492;DHT22;5293;51.464;-2.566;2024-02-15T03:43:22;13.70;99.90
10492;DHT22;5293;51.464;-2.566;2024-02-15T03:45:49;13.70;99.90
10492;DHT22;5293;51.464;-2.566;2024-02-15T03:48:15;13.70;99.90
10492;DHT22;5293;51.464;-2.566;2024-02-15T03:50:41;13.70;99.90
10492;DHT22;5293;51.464;-2.566;2024-02-15T03:53:09;13.70;99.90
10492;DHT22;5293;51.464;-2.566;2024-02-15T03:55:36;13.70;99.90
10492;DHT22;5293;51.464;-2.566;2024-02-15T03:58:02;13.70;99.90
10492;DHT22;5293;51.464;-2.566;2024-02-15T04:00:27;13.70;99.90
10492;DHT22;5293;51.464;-2.566;2024-02-15T04:02:53;13.70;99.90
10492;DHT22;5293;51.464;-2.566;2024-02-15T04:05:20;13.70;99.90
10492;DHT22;5293;51.464;-2.566;2024-02-15T04:07:48;13.80;99.90
10492;DHT22;5293;51.464;-2.566;2024-02-15T04:10:14;13.80;99.90
10492;DHT22;5293;51.464;-2.566;2024-02-15T04:12:40;13.90;99.90
10492;DHT22;5293;51.464;-2.566;2024-02-15T04:15:08;13.80;99.90
10492;DHT22;5293;51.464;-2.566;2024-02-15T04:17:38;13.80;99.90
10492;DHT22;5293;51.464;-2.566;2024-02-15T04:20:04;13.80;99.90
10492;DHT22;5293;51.464;-2.566;2024-02-15T04:22:34;13.90;99.90
10492;DHT22;5293;51.464;-2.566;2024-02-15T04:25:06;13.90;99.90
10492;DHT22;5293;51.464;-2.566;2024-02-15T04:27:33;13.80;99.90
10492;DHT22;5293;51.464;-2.566;2024-02-15T04:29:59;13.90;99.90
10492;DHT22;5293;51.464;-2.566;2024-02-15T04:32:24;13.90;99.90
10492;DHT22;5293;51.464;-2.566;2024-02-15T04:34:50;13.90;99.90
10492;DHT22;5293;51.464;-2.566;2024-02-15T04:37:16;13.80;99.90
10492;DHT22;5293;51.464;-2.566;2024-02-15T04:39:43;13.90;99.90
10492;DHT22;5293;51.464;-2.566;2024-02-15T04:42:09;13.90;99.90
10492;DHT22;5293;51.464;-2.566;2024-02-15T04:44:40;13.80;99.90
10492;DHT22;5293;51.464;-2.566;2024-02-15T04:47:06;13.80;99.90
10492;DHT22;5293;51.464;-2.566;2024-02-15T04:49:32;13.80;99.90
10492;DHT22;5293;51.464;-2.566;2024-02-15T04:51:58;13.80;99.90
10492;DHT22;5293;51.464;-2.566;2024-02-15T04:54:24;13.80;99.90
10492;DHT22;5293;51.464;-2.566;2024-02-15T04:56:50;13.80;99.90
10492;DHT22;5293;51.464;-2.566;2024-02-15T04:59:20;13.80;99.90
10492;DHT22;5293;51.464;-2.566;2024-02-15T05:01:47;13.90;99.90
10492;DHT22;5293;51.464;-2.566;2024-02-15T05:04:13;13.90;99.90
10492;DHT22;5293;51.464;-2.566;2024-02-15T05:06:39;13.90;99.90
10492;DHT22;5293;51.464;-2.566;2024-02-15T05:09:06;14.00;99.90
10492;DHT22;5293;51.464;-2.566;2024-02-15T05:11:39;14.00;99.90
10492;DHT22;5293;51.464;-2.566;2024-02-15T05:14:12;14.00;99.90
10492;DHT22;5293;51.464;-2.566;2024-02-15T05:16:38;14.00;99.90
10492;DHT22;5293;51.464;-2.566;2024-02-15T05:19:09;14.00;99.90
10492;DHT22;5293;51.464;-2.566;2024-02-15T05:21:37;14.00;99.90
10492;DHT22;5293;51.464;-2.566;2024-02-15T05:24:06;14.00;99.90
10492;DHT22;5293;51.464;-2.566;2024-02-15T05:26:32;14.00;99.90
10492;DHT22;5293;51.464;-2.566;2024-02-15T05:28:58;14.00;99.90
10492;DHT22;5293;51.464;-2.566;2024-02-15T05:31:24;14.00;99.90
10492;DHT22;5293;51.464;-2.566;2024-02-15T05:33:53;14.10;99.90
10492;DHT22;5293;51.464;-2.566;2024-02-15T05:36:20;14.00;99.90
10492;DHT22;5293;51.464;-2.566;2024-02-15T05:38:51;14.10;99.90
10492;DHT22;5293;51.464;-2.566;2024-02-15T05:41:17;14.10;99.90
10492;DHT22;5293;51.464;-2.566;2024-02-15T05:43:44;14.10;99.90
10492;DHT22;5293;51.464;-2.566;2024-02-15T05:46:10;14.10;99.90
10492;DHT22;5293;51.464;-2.566;2024-02-15T05:48:37;14.10;99.90
10492;DHT22;5293;51.464;-2.566;2024-02-15T05:51:03;14.10;99.90
10492;DHT22;5293;51.464;-2.566;2024-02-15T05:53:29;14.10;99.90
10492;DHT22;5293;51.464;-2.566;2024-02-15T05:55:55;14.10;99.90
10492;DHT22;5293;51.464;-2.566;2024-02-15T05:58:23;14.10;99.90
10492;DHT22;5293;51.464;-2.566;2024-02-15T06:00:49;14.10;99.90
10492;DHT22;5293;51.464;-2.566;2024-02-15T06:03:16;14.10;99.90
10492;DHT22;5293;51.464;-2.566;2024-02-15T06:05:43;14.10;99.90
10492;DHT22;5293;51.464;-2.566;2024-02-15T06:08:09;14.10;99.90
10492;DHT22;5293;51.464;-2.566;2024-02-15T06:10:38;14.20;99.90
10492;DHT22;5293;51.464;-2.566;2024-02-15T06:13:03;14.10;99.90
10492;DHT22;5293;51.464;-2.566;2024-02-15T06:15:29;14.10;99.90
10492;DHT22;5293;51.464;-2.566;2024-02-15T06:17:55;14.10;99.90
10492;DHT22;5293;51.464;-2.566;2024-02-15T06:20:21;14.10;99.90
10492;DHT22;5293;51.464;-2.566;2024-02-15T06:22:48;14.20;99.90
10492;DHT22;5293;51.464;-2.566;2024-02-15T06:25:14;14.20;99.90
10492;DHT22;5293;51.464;-2.566;2024-02-15T06:27:41;14.20;99.90
10492;DHT22;5293;51.464;-2.566;2024-02-15T06:30:11;14.20;99.90
10492;DHT22;5293;51.464;-2.566;2024-02-15T06:32:57;14.20;99.90
10492;DHT22;5293;51.464;-2.566;2024-02-15T06:35:42;14.20;99.90
10492;DHT22;5293;51.464;-2.566;2024-02-15T06:38:26;14.20;99.90
10492;DHT22;5293;51.464;-2.566;2024-02-15T06:41:10;14.20;99.90
10492;DHT22;5293;51.464;-2.566;2024-02-15T06:43:36;14.20;99.90
10492;DHT22;5293;51.464;-2.566;2024-02-15T06:46:05;14.10;99.90
10492;DHT22;5293;51.464;-2.566;2024-02-15T06:48:31;14.10;99.90
10492;DHT22;5293;51.464;-2.566;2024-02-15T06:50:57;14.20;99.90
10492;DHT22;5293;51.464;-2.566;2024-02-15T06:53:23;14.10;99.90
10492;DHT22;5293;51.464;-2.566;2024-02-15T06:55:49;14.20;99.90
10492;DHT22;5293;51.464;-2.566;2024-02-15T06:58:16;14.10;99.90
10492;DHT22;5293;51.464;-2.566;2024-02-15T07:00:45;14.10;99.90
10492;DHT22;5293;51.464;-2.566;2024-02-15T07:03:10;14.10;99.90
10492;DHT22;5293;51.464;-2.566;2024-02-15T07:05:37;14.10;99.90
10492;DHT22;5293;51.464;-2.566;2024-02-15T07:08:07;14.10;99.90
10492;DHT22;5293;51.464;-2.566;2024-02-15T07:10:33;14.10;99.90
10492;DHT22;5293;51.464;-2.566;2024-02-15T07:12:58;14.10;99.90
10492;DHT22;5293;51.464;-2.566;2024-02-15T07:15:24;14.00;99.90
10492;DHT22;5293;51.464;-2.566;2024-02-15T07:17:50;14.00;99.90
10492;DHT22;5293;51.464;-2.566;2024-02-15T07:20:20;14.10;99.90
10492;DHT22;5293;51.464;-2.566;2024-02-15T07:22:47;14.10;99.90
10492;DHT22;5293;51.464;-2.566;2024-02-15T07:25:13;14.10;99.90
10492;DHT22;5293;51.464;-2.566;2024-02-15T07:27:39;14.00;99.90
10492;DHT22;5293;51.464;-2.566;2024-02-15T07:30:06;14.00;99.90
10492;DHT22;5293;51.464;-2.566;2024-02-15T07:32:34;13.90;99.90
10492;DHT22;5293;51.464;-2.566;2024-02-15T07:35:01;14.00;99.90
10492;DHT22;5293;51.464;-2.566;2024-02-15T07:37:26;13.90;99.90
10492;DHT22;5293;51.464;-2.566;2024-02-15T07:39:52;14.00;99.90
10492;DHT22;5293;51.464;-2.566;2024-02-15T07:42:18;13.90;99.90
10492;DHT22;5293;51.464;-2.566;2024-02-15T07:44:44;13.90;99.90
10492;DHT22;5293;51.464;-2.566;2024-02-15T07:47:09;13.90;99.90
10492;DHT22;5293;51.464;-2.566;2024-02-15T07:49:38;13.80;99.90
10492;DHT22;5293;51.464;-2.566;2024-02-15T07:52:04;13.80;99.90
10492;DHT22;5293;51.464;-2.566;2024-02-15T07:54:33;13.80;99.90
10492;DHT22;5293;51.464;-2.566;2024-02-15T07:56:59;13.80;99.90
10492;DHT22;5293;51.464;-2.566;2024-02-15T07:59:24;13.80;99.90
10492;DHT22;5293;51.464;-2.566;2024-02-15T08:01:50;13.90;99.90
10492;DHT22;5293;51.464;-2.566;2024-02-15T08:04:16;13.80;99.90
10492;DHT22;5293;51.464;-2.566;2024-02-15T08:06:50;13.90;99.90
10492;DHT22;5293;51.464;-2.566;2024-02-15T08:09:17;13.90;99.90
10492;DHT22;5293;51.464;-2.566;2024-02-15T08:11:45;13.90;99.90
10492;DHT22;5293;51.464;-2.566;2024-02-15T08:14:11;14.00;99.90
10492;DHT22;5293;51.464;-2.566;2024-02-15T08:16:37;13.90;99.90
10492;DHT22;5293;51.464;-2.566;2024-02-15T08:19:03;13.90;99.90
10492;DHT22;5293;51.464;-2.566;2024-02-15T08:21:31;13.90;99.90
10492;DHT22;5293;51.464;-2.566;2024-02-15T08:24:06;13.90;99.90
10492;DHT22;5293;51.464;-2.566;2024-02-15T08:26:33;13.90;99.90
10492;DHT22;5293;51.464;-2.566;2024-02-15T08:29:01;13.90;99.90
10492;DHT22;5293;51.464;-2.566;2024-02-15T08:31:28;13.90;99.90
10492;DHT22;5293;51.464;-2.566;2024-02-15T08:33:56;13.90;99.90
10492;DHT22;5293;51.464;-2.566;2024-02-15T08:36:21;13.90;99.90
10492;DHT22;5293;51.464;-2.566;2024-02-15T08:38:48;13.90;99.90
10492;DHT22;5293;51.464;-2.566;2024-02-15T08:41:15;13.90;99.90
10492;DHT22;5293;51.464;-2.566;2024-02-15T08:43:43;13.80;99.90
10492;DHT22;5293;51.464;-2.566;2024-02-15T08:46:09;13.90;99.90
10492;DHT22;5293;51.464;-2.566;2024-02-15T08:48:35;13.90;99.90
10492;DHT22;5293;51.464;-2.566;2024-02-15T08:51:01;13.90;99.90
10492;DHT22;5293;51.464;-2.566;2024-02-15T08:53:27;13.90;99.90
10492;DHT22;5293;51.464;-2.566;2024-02-15T08:55:53;13.80;99.90
10492;DHT22;5293;51.464;-2.566;2024-02-15T08:58:19;13.90;99.90
10492;DHT22;5293;51.464;-2.566;2024-02-15T09:00:46;13.90;99.90
10492;DHT22;5293;51.464;-2.566;2024-02-15T09:03:12;13.90;99.90
10492;DHT22;5293;51.464;-2.566;2024-02-15T09:05:39;14.00;99.90
10492;DHT22;5293;51.464;-2.566;2024-02-15T09:08:06;13.90;99.90
10492;DHT22;5293;51.464;-2.566;2024-02-15T09:10:32;14.00;99.90
10492;DHT22;5293;51.464;-2.566;2024-02-15T09:12:58;14.00;99.90
10492;DHT22;5293;51.464;-2.566;2024-02-15T09:15:23;14.10;99.90
10492;DHT22;5293;51.464;-2.566;2024-02-15T09:17:50;14.00;99.90
10492;DHT22;5293;51.464;-2.566;2024-02-15T09:20:17;14.10;99.90
10492;DHT22;5293;51.464;-2.566;2024-02-15T09:22:49;14.10;99.90
10492;DHT22;5293;51.464;-2.566;2024-02-15T09:25:15;14.30;99.90
10492;DHT22;5293;51.464;-2.566;2024-02-15T09:27:41;14.40;99.90
10492;DHT22;5293;51.464;-2.566;2024-02-15T09:30:08;14.50;99.90
10492;DHT22;5293;51.464;-2.566;2024-02-15T09:32:38;14.60;99.90
10492;DHT22;5293;51.464;-2.566;2024-02-15T09:35:05;14.60;99.90
10492;DHT22;5293;51.464;-2.566;2024-02-15T09:37:52;14.60;99.90
10492;DHT22;5293;51.464;-2.566;2024-02-15T09:40:20;14.60;99.90
10492;DHT22;5293;51.464;-2.566;2024-02-15T09:42:47;14.50;99.90
10492;DHT22;5293;51.464;-2.566;2024-02-15T09:45:13;14.40;99.90
10492;DHT22;5293;51.464;-2.566;2024-02-15T09:47:40;14.50;99.90
10492;DHT22;5293;51.464;-2.566;2024-02-15T09:50:07;14.40;99.90
10492;DHT22;5293;51.464;-2.566;2024-02-15T09:52:34;14.40;99.90
10492;DHT22;5293;51.464;-2.566;2024-02-15T09:55:03;14.30;99.90
10492;DHT22;5293;51.464;-2.566;2024-02-15T09:57:30;14.30;99.90
10492;DHT22;5293;51.464;-2.566;2024-02-15T09:59:58;14.30;99.90
10492;DHT22;5293;51.464;-2.566;2024-02-15T10:02:26;14.20;99.90
10492;DHT22;5293;51.464;-2.566;2024-02-15T10:04:53;14.20;99.90
10492;DHT22;5293;51.464;-2.566;2024-02-15T10:07:23;14.20;99.90
10492;DHT22;5293;51.464;-2.566;2024-02-15T10:09:49;14.20;99.90
10492;DHT22;5293;51.464;-2.566;2024-02-15T10:12:14;14.20;99.90
10492;DHT22;5293;51.464;-2.566;2024-02-15T10:14:48;14.10;99.90
10492;DHT22;5293;51.464;-2.566;2024-02-15T10:17:19;14.20;99.90
10492;DHT22;5293;51.464;-2.566;2024-02-15T10:19:45;14.40;99.90
10492;DHT22;5293;51.464;-2.566;2024-02-15T10:22:12;14.40;99.90
10492;DHT22;5293;51.464;-2.566;2024-02-15T10:24:42;14.40;99.90
10492;DHT22;5293;51.464;-2.566;2024-02-15T10:27:07;14.40;99.90
10492;DHT22;5293;51.464;-2.566;2024-02-15T10:29:33;14.40;99.90
10492;DHT22;5293;51.464;-2.566;2024-02-15T10:32:03;14.40;99.90
10492;DHT22;5293;51.464;-2.566;2024-02-15T10:34:30;14.50;99.90
10492;DHT22;5293;51.464;-2.566;2024-02-15T10:37:22;14.50;99.90
10492;DHT22;5293;51.464;-2.566;2024-02-15T10:40:04;14.50;99.90
10492;DHT22;5293;51.464;-2.566;2024-02-15T10:42:35;14.50;99.90
10492;DHT22;5293;51.464;-2.566;2024-02-15T10:45:05;14.40;99.90
10492;DHT22;5293;51.464;-2.566;2024-02-15T10:47:37;14.50;99.90
10492;DHT22;5293;51.464;-2.566;2024-02-15T10:50:04;14.50;99.90
10492;DHT22;5293;51.464;-2.566;2024-02-15T10:52:32;14.60;99.90
10492;DHT22;5293;51.464;-2.566;2024-02-15T10:55:03;14.70;99.90
10492;DHT22;5293;51.464;-2.566;2024-02-15T10:57:31;14.70;99.90
10492;DHT22;5293;51.464;-2.566;2024-02-15T10:59:59;14.70;99.90
10492;DHT22;5293;51.464;-2.566;2024-02-15T11:05:30;14.70;99.90
10492;DHT22;5293;51.464;-2.566;2024-02-15T11:07:58;14.80;99.90
10492;DHT22;5293;51.464;-2.566;2024-02-15T11:10:25;14.80;99.90
10492;DHT22;5293;51.464;-2.566;2024-02-15T11:12:51;14.80;99.90
10492;DHT22;5293;51.464;-2.566;2024-02-15T11:18:05;15.00;99.90
10492;DHT22;5293;51.464;-2.566;2024-02-15T11:23:04;15.00;99.90
10492;DHT22;5293;51.464;-2.566;2024-02-15T11:25:34;15.10;99.90
10492;DHT22;5293;51.464;-2.566;2024-02-15T11:30:48;15.20;99.90
10492;DHT22;5293;51.464;-2.566;2024-02-15T11:33:33;15.20;99.90
10492;DHT22;5293;51.464;-2.566;2024-02-15T11:36:05;15.20;99.90
10492;DHT22;5293;51.464;-2.566;2024-02-15T11:38:31;15.30;99.90
10492;DHT22;5293;51.464;-2.566;2024-02-15T11:46:18;15.30;99.90
10492;DHT22;5293;51.464;-2.566;2024-02-15T11:48:52;15.40;99.90
10492;DHT22;5293;51.464;-2.566;2024-02-15T11:51:35;15.50;99.90
10492;DHT22;5293;51.464;-2.566;2024-02-15T11:54:09;15.60;99.90
10492;DHT22;5293;51.464;-2.566;2024-02-15T11:59:12;15.90;99.90
10492;DHT22;5293;51.464;-2.566;2024-02-15T12:01:44;16.00;99.90
10492;DHT22;5293;51.464;-2.566;2024-02-15T12:04:32;16.00;99.90
10492;DHT22;5293;51.464;-2.566;2024-02-15T12:07:16;16.00;99.90
10492;DHT22;5293;51.464;-2.566;2024-02-15T12:10:01;16.00;99.90
10492;DHT22;5293;51.464;-2.566;2024-02-15T12:12:51;16.10;99.90
10492;DHT22;5293;51.464;-2.566;2024-02-15T12:15:36;16.00;99.90
10492;DHT22;5293;51.464;-2.566;2024-02-15T12:18:20;16.10;99.90
10492;DHT22;5293;51.464;-2.566;2024-02-15T12:21:04;16.10;99.90
10492;DHT22;5293;51.464;-2.566;2024-02-15T12:23:31;16.10;99.90
10492;DHT22;5293;51.464;-2.566;2024-02-15T12:26:00;16.10;99.90
10492;DHT22;5293;51.464;-2.566;2024-02-15T12:28:25;16.10;99.90
10492;DHT22;5293;51.464;-2.566;2024-02-15T12:30:57;16.10;99.90
10492;DHT22;5293;51.464;-2.566;2024-02-15T12:33:23;16.10;99.90
10492;DHT22;5293;51.464;-2.566;2024-02-15T12:35:49;16.00;99.90
10492;DHT22;5293;51.464;-2.566;2024-02-15T12:38:18;16.10;99.90
10492;DHT22;5293;51.464;-2.566;2024-02-15T12:40:44;16.00;99.90
10492;DHT22;5293;51.464;-2.566;2024-02-15T12:43:12;16.00;99.90
10492;DHT22;5293;51.464;-2.566;2024-02-15T12:45:40;16.00;99.90
10492;DHT22;5293;51.464;-2.566;2024-02-15T12:48:09;16.00;99.90
10492;DHT22;5293;51.464;-2.566;2024-02-15T12:50:36;16.00;99.90
10492;DHT22;5293;51.464;-2.566;2024-02-15T12:53:02;16.10;99.90
10492;DHT22;5293;51.464;-2.566;2024-02-15T12:57:56;16.00;99.90
10492;DHT22;5293;51.464;-2.566;2024-02-15T13:00:24;16.00;99.90
10492;DHT22;5293;51.464;-2.566;2024-02-15T13:02:54;16.00;99.90
10492;DHT22;5293;51.464;-2.566;2024-02-15T13:05:21;16.10;99.90
10492;DHT22;5293;51.464;-2.566;2024-02-15T13:07:51;16.10;99.90
10492;DHT22;5293;51.464;-2.566;2024-02-15T13:10:17;16.20;99.90
10492;DHT22;5293;51.464;-2.566;2024-02-15T13:12:44;16.20;99.90
10492;DHT22;5293;51.464;-2.566;2024-02-15T13:15:12;16.20;99.90
10492;DHT22;5293;51.464;-2.566;2024-02-15T13:17:43;16.30;99.90
10492;DHT22;5293;51.464;-2.566;2024-02-15T13:20:10;16.30;99.90
10492;DHT22;5293;51.464;-2.566;2024-02-15T13:22:40;16.30;99.90
10492;DHT22;5293;51.464;-2.566;2024-02-15T13:25:07;16.30;99.90
10492;DHT22;5293;51.464;-2.566;2024-02-15T13:27:36;16.50;99.90
10492;DHT22;5293;51.464;-2.566;2024-02-15T13:30:06;16.50;99.90
10492;DHT22;5293;51.464;-2.566;2024-02-15T13:32:38;16.60;99.90
10492;DHT22;5293;51.464;-2.566;2024-02-15T13:35:06;16.50;99.90
10492;DHT22;5293;51.464;-2.566;2024-02-15T13:37:51;16.50;99.90
10492;DHT22;5293;51.464;-2.566;2024-02-15T13:40:21;16.50;99.90
10492;DHT22;5293;51.464;-2.566;2024-02-15T13:42:51;16.50;99.90
10492;DHT22;5293;51.464;-2.566;2024-02-15T13:45:43;16.50;99.90
10492;DHT22;5293;51.464;-2.566;2024-02-15T13:48:10;16.50;99.90
10492;DHT22;5293;51.464;-2.566;2024-02-15T13:50:38;16.50;99.90
10492;DHT22;5293;51.464;-2.566;2024-02-15T13:53:04;16.40;99.90
10492;DHT22;5293;51.464;-2.566;2024-02-15T13:55:30;16.50;99.90
10492;DHT22;5293;51.464;-2.566;2024-02-15T13:57:56;16.40;99.90
10492;DHT22;5293;51.464;-2.566;2024-02-15T14:00:23;16.60;99.90
10492;DHT22;5293;51.464;-2.566;2024-02-15T14:02:56;16.50;99.90
10492;DHT22;5293;51.464;-2.566;2024-02-15T14:05:23;16.50;99.90
10492;DHT22;5293;51.464;-2.566;2024-02-15T14:07:58;16.60;99.90
10492;DHT22;5293;51.464;-2.566;2024-02-15T14:10:25;16.50;99.90
10492;DHT22;5293;51.464;-2.566;2024-02-15T14:12:53;16.50;99.90
10492;DHT22;5293;51.464;-2.566;2024-02-15T14:15:24;16.50;99.90
10492;DHT22;5293;51.464;-2.566;2024-02-15T14:17:50;16.50;99.90
10492;DHT22;5293;51.464;-2.566;2024-02-15T14:20:15;16.50;99.90
10492;DHT22;5293;51.464;-2.566;2024-02-15T14:22:46;16.40;99.90
10492;DHT22;5293;51.464;-2.566;2024-02-15T14:25:15;16.40;99.90
10492;DHT22;5293;51.464;-2.566;2024-02-15T14:27:41;16.40;99.90
10492;DHT22;5293;51.464;-2.566;2024-02-15T14:30:08;16.30;99.90
10492;DHT22;5293;51.464;-2.566;2024-02-15T14:32:52;16.40;99.90
10492;DHT22;5293;51.464;-2.566;2024-02-15T14:35:34;16.40;99.90
10492;DHT22;5293;51.464;-2.566;2024-02-15T14:38:01;16.40;99.90
10492;DHT22;5293;51.464;-2.566;2024-02-15T14:40:31;16.50;99.90
10492;DHT22;5293;51.464;-2.566;2024-02-15T14:42:58;16.40;99.90
10492;DHT22;5293;51.464;-2.566;2024-02-15T14:45:28;16.40;99.90
10492;DHT22;5293;51.464;-2.566;2024-02-15T14:47:54;16.20;99.90
10492;DHT22;5293;51.464;-2.566;2024-02-15T14:50:20;16.20;99.90
10492;DHT22;5293;51.464;-2.566;2024-02-15T14:52:49;16.10;99.90
10492;DHT22;5293;51.464;-2.566;2024-02-15T14:55:15;16.00;99.90
10492;DHT22;5293;51.464;-2.566;2024-02-15T14:57:42;15.90;99.90
10492;DHT22;5293;51.464;-2.566;2024-02-15T15:00:08;15.90;99.90
10492;DHT22;5293;51.464;-2.566;2024-02-15T15:02:44;15.90;99.90
10492;DHT22;5293;51.464;-2.566;2024-02-15T15:05:10;15.90;99.90
10492;DHT22;5293;51.464;-2.566;2024-02-15T15:07:54;15.80;99.90
10492;DHT22;5293;51.464;-2.566;2024-02-15T15:10:38;15.80;99.90
10492;DHT22;5293;51.464;-2.566;2024-02-15T15:13:22;15.80;99.90
10492;DHT22;5293;51.464;-2.566;2024-02-15T15:15:49;15.80;99.90
10492;DHT22;5293;51.464;-2.566;2024-02-15T15:18:15;15.70;99.90
10492;DHT22;5293;51.464;-2.566;2024-02-15T15:20:40;15.80;99.90
10492;DHT22;5293;51.464;-2.566;2024-02-15T15:23:06;15.70;99.90
10492;DHT22;5293;51.464;-2.566;2024-02-15T15:25:33;15.70;99.90
10492;DHT22;5293;51.464;-2.566;2024-02-15T15:27:59;15.70;99.90
10492;DHT22;5293;51.464;-2.566;2024-02-15T15:30:25;15.80;99.90
10492;DHT22;5293;51.464;-2.566;2024-02-15T15:32:50;15.70;99.90
10492;DHT22;5293;51.464;-2.566;2024-02-15T15:35:16;15.60;99.90
10492;DHT22;5293;51.464;-2.566;2024-02-15T15:37:47;15.60;99.90
10492;DHT22;5293;51.464;-2.566;2024-02-15T15:40:16;15.50;99.90
10492;DHT22;5293;51.464;-2.566;2024-02-15T15:42:42;15.50;99.90
10492;DHT22;5293;51.464;-2.566;2024-02-15T15:45:09;15.50;99.90
10492;DHT22;5293;51.464;-2.566;2024-02-15T15:47:35;15.50;99.90
10492;DHT22;5293;51.464;-2.566;2024-02-15T15:50:01;15.40;99.90
10492;DHT22;5293;51.464;-2.566;2024-02-15T15:52:27;15.40;99.90
10492;DHT22;5293;51.464;-2.566;2024-02-15T15:54:53;15.40;99.90
10492;DHT22;5293;51.464;-2.566;2024-02-15T15:57:19;15.30;99.90